Time;durP1;ratioP1;P1;durP2;ratioP2;P2;SDS_P1;SDS_P2;PMS_P1;PMS_P2;Temp;Humidity;BMP_temperature;BMP_pressure;BME280_temperature;BME280_humidity;BME280_pressure;Samples;Min_cycle;Max_cycle;Signal;HPM_P1;HPM_P2
2021/06/16 00:00:01;;;;;;;2.90;2.03;;;;;;;;;;5003966;28;20108;-62
2021/06/16 00:02:26;;;;;;;1.92;1.83;;;;;;;;;;4998710;28;20038;-62
2021/06/16 00:04:52;;;;;;;2.00;1.90;;;;;;;;;;5003390;28;20033;-62
2021/06/16 00:07:17;;;;;;;1.92;1.80;;;;;;;;;;5003559;28;20033;-62
2021/06/16 00:09:43;;;;;;;3.38;2.10;;;;;;;;;;5000213;28;20496;-61
2021/06/16 00:12:09;;;;;;;2.38;2.13;;;;;;;;;;4994628;28;20456;-62
2021/06/16 00:14:36;;;;;;;2.22;1.95;;;;;;;;;;5015398;28;20512;-62
2021/06/16 00:17:01;;;;;;;1.92;1.80;;;;;;;;;;4996087;28;20058;-62
2021/06/16 00:19:27;;;;;;;2.28;2.08;;;;;;;;;;5003868;28;20057;-62
2021/06/16 00:21:52;;;;;;;3.33;2.30;;;;;;;;;;5004575;28;20025;-62
2021/06/16 00:24:21;;;;;;;3.83;2.10;;;;;;;;;;4996972;28;20217;-62
2021/06/16 00:26:47;;;;;;;3.33;2.10;;;;;;;;;;4992574;28;20037;-62
2021/06/16 00:29:13;;;;;;;2.50;2.30;;;;;;;;;;5001833;28;20543;-61
2021/06/16 00:31:38;;;;;;;2.55;2.03;;;;;;;;;;4998594;28;20120;-61
2021/06/16 00:34:04;;;;;;;2.85;2.05;;;;;;;;;;4999816;28;20484;-62
2021/06/16 00:36:30;;;;;;;4.50;2.10;;;;;;;;;;5004840;28;20113;-62
2021/06/16 00:38:56;;;;;;;2.38;2.17;;;;;;;;;;5003592;28;20030;-62
2021/06/16 00:41:21;;;;;;;2.38;2.17;;;;;;;;;;5002847;28;20037;-63
2021/06/16 00:43:47;;;;;;;2.40;2.20;;;;;;;;;;4999843;28;20075;-62
2021/06/16 00:46:12;;;;;;;2.58;2.28;;;;;;;;;;4999243;28;20026;-62
2021/06/16 00:48:38;;;;;;;4.63;2.40;;;;;;;;;;4996107;28;20029;-62
2021/06/16 00:51:03;;;;;;;3.55;2.28;;;;;;;;;;5001875;28;20030;-62
2021/06/16 00:53:29;;;;;;;2.40;2.20;;;;;;;;;;5004496;28;20034;-62
2021/06/16 00:55:54;;;;;;;3.33;2.50;;;;;;;;;;5006089;28;20041;-62
2021/06/16 00:58:20;;;;;;;2.40;2.20;;;;;;;;;;5000279;28;20022;-61
2021/06/16 01:00:46;;;;;;;3.15;2.25;;;;;;;;;;5019124;28;20136;-61
2021/06/16 01:03:14;;;;;;;4.55;2.53;;;;;;;;;;4998240;28;20045;-61
2021/06/16 01:05:43;;;;;;;3.83;2.22;;;;;;;;;;4994117;28;20057;-62
2021/06/16 01:08:17;;;;;;;3.17;2.25;;;;;;;;;;4999191;28;20089;-61
2021/06/16 01:10:46;;;;;;;2.75;2.47;;;;;;;;;;4996159;28;20108;-62
2021/06/16 01:13:47;;;;;;;2.38;2.17;;;;;;;;;;4996421;28;20041;-62
2021/06/16 01:16:21;;;;;;;2.15;1.95;;;;;;;;;;5006205;28;20038;-62
2021/06/16 01:18:51;;;;;;;2.90;2.13;;;;;;;;;;5000997;28;20032;-61
2021/06/16 01:21:17;;;;;;;2.25;2.05;;;;;;;;;;4999429;28;20029;-62
2021/06/16 01:23:51;;;;;;;3.38;2.30;;;;;;;;;;5002040;28;20105;-61
2021/06/16 01:26:21;;;;;;;2.47;2.28;;;;;;;;;;5002227;28;20518;-61
2021/06/16 01:28:46;;;;;;;3.40;2.33;;;;;;;;;;5001897;28;20517;-61
2021/06/16 01:31:15;;;;;;;4.93;2.25;;;;;;;;;;4992809;28;20120;-61
2021/06/16 01:33:40;;;;;;;4.95;2.33;;;;;;;;;;4997698;28;20113;-61
2021/06/16 01:36:09;;;;;;;2.78;2.20;;;;;;;;;;5017732;28;20626;-62
2021/06/16 01:38:35;;;;;;;2.60;2.15;;;;;;;;;;4997408;28;20110;-61
2021/06/16 01:41:03;;;;;;;3.67;2.28;;;;;;;;;;5002477;28;20030;-61
2021/06/16 01:43:29;;;;;;;1.90;1.80;;;;;;;;;;5005050;28;20033;-61
2021/06/16 01:45:57;;;;;;;5.50;2.25;;;;;;;;;;5000300;28;20048;-61
2021/06/16 01:48:23;;;;;;;2.33;2.13;;;;;;;;;;5014973;28;20033;-61
2021/06/16 01:50:51;;;;;;;2.38;2.10;;;;;;;;;;4998702;28;20026;-61
2021/06/16 01:53:18;;;;;;;3.75;2.40;;;;;;;;;;5000685;28;20085;-61
2021/06/16 01:55:44;;;;;;;3.67;2.28;;;;;;;;;;5000943;28;20034;-61
2021/06/16 01:58:10;;;;;;;3.22;2.00;;;;;;;;;;5000022;28;20026;-61
2021/06/16 02:00:38;;;;;;;4.93;2.60;;;;;;;;;;5003610;28;20144;-61
2021/06/16 02:03:03;;;;;;;3.50;2.10;;;;;;;;;;4997808;28;20025;-61
2021/06/16 02:05:30;;;;;;;2.88;2.03;;;;;;;;;;5001304;28;20030;-61
2021/06/16 02:08:06;;;;;;;3.28;2.13;;;;;;;;;;5002353;28;20081;-61
2021/06/16 02:10:47;;;;;;;4.47;2.22;;;;;;;;;;4995128;28;20049;-61
2021/06/16 02:13:15;;;;;;;2.63;2.00;;;;;;;;;;4998716;28;20581;-61
2021/06/16 02:15:54;;;;;;;2.28;2.08;;;;;;;;;;5003025;28;20397;-61
2021/06/16 02:18:26;;;;;;;2.20;2.00;;;;;;;;;;5001869;28;20125;-61
2021/06/16 02:20:51;;;;;;;2.72;2.40;;;;;;;;;;5002986;28;20030;-61
2021/06/16 02:23:17;;;;;;;2.47;2.28;;;;;;;;;;5007458;28;20072;-61
2021/06/16 02:25:43;;;;;;;2.10;2.00;;;;;;;;;;5002556;28;20080;-61
2021/06/16 02:28:08;;;;;;;3.10;2.22;;;;;;;;;;4998910;28;20034;-61
2021/06/16 02:30:34;;;;;;;2.50;2.30;;;;;;;;;;5000191;28;20045;-61
2021/06/16 02:32:59;;;;;;;2.92;2.15;;;;;;;;;;5000336;28;20058;-60
2021/06/16 02:35:25;;;;;;;2.47;2.10;;;;;;;;;;4998336;28;20026;-61
2021/06/16 02:38:01;;;;;;;3.70;2.33;;;;;;;;;;5001710;28;20030;-61
2021/06/16 02:40:27;;;;;;;2.97;2.30;;;;;;;;;;5004474;28;20503;-61
2021/06/16 02:42:54;;;;;;;4.85;2.13;;;;;;;;;;4996374;28;20026;-61
2021/06/16 02:45:20;;;;;;;2.53;2.00;;;;;;;;;;5002597;28;20093;-61
2021/06/16 02:47:50;;;;;;;2.17;1.98;;;;;;;;;;5002906;28;20460;-60
2021/06/16 02:50:26;;;;;;;2.88;2.20;;;;;;;;;;5003964;28;20141;-61
2021/06/16 02:52:52;;;;;;;3.40;2.40;;;;;;;;;;5006218;28;20076;-61
2021/06/16 02:55:19;;;;;;;3.45;2.30;;;;;;;;;;5008316;28;20038;-61
2021/06/16 02:57:45;;;;;;;3.55;2.33;;;;;;;;;;5006363;28;20022;-61
2021/06/16 03:00:13;;;;;;;2.50;2.30;;;;;;;;;;5001136;28;20030;-61
2021/06/16 03:02:42;;;;;;;2.85;2.50;;;;;;;;;;5004639;28;20025;-61
2021/06/16 03:05:10;;;;;;;3.17;2.25;;;;;;;;;;5003419;28;20104;-61
2021/06/16 03:07:36;;;;;;;4.30;2.47;;;;;;;;;;5003509;28;20072;-61
2021/06/16 03:10:04;;;;;;;3.63;2.17;;;;;;;;;;5000555;28;20451;-61
2021/06/16 03:12:30;;;;;;;3.30;2.20;;;;;;;;;;5005709;28;20044;-61
2021/06/16 03:14:58;;;;;;;2.97;2.40;;;;;;;;;;5002114;28;20030;-61
2021/06/16 03:17:24;;;;;;;2.88;2.35;;;;;;;;;;5002351;28;20080;-61
2021/06/16 03:19:50;;;;;;;3.03;2.40;;;;;;;;;;5004577;28;20053;-61
2021/06/16 03:22:17;;;;;;;3.72;2.60;;;;;;;;;;5000438;28;20500;-61
2021/06/16 03:24:44;;;;;;;3.55;2.45;;;;;;;;;;5006818;28;20419;-61
2021/06/16 03:27:10;;;;;;;3.13;2.53;;;;;;;;;;4992221;28;20489;-60
2021/06/16 03:29:37;;;;;;;3.08;2.78;;;;;;;;;;5002616;28;20034;-61
2021/06/16 03:32:05;;;;;;;3.42;2.72;;;;;;;;;;5005306;28;20030;-61
2021/06/16 03:34:30;;;;;;;3.28;2.40;;;;;;;;;;5002377;28;20045;-61
2021/06/16 03:37:00;;;;;;;3.45;2.35;;;;;;;;;;5003097;28;20038;-61
2021/06/16 03:39:27;;;;;;;2.72;2.42;;;;;;;;;;5004099;28;20044;-60
2021/06/16 03:41:53;;;;;;;4.15;2.60;;;;;;;;;;4998893;28;20089;-61
2021/06/16 03:44:19;;;;;;;2.58;2.38;;;;;;;;;;5007149;28;20044;-61
2021/06/16 03:46:45;;;;;;;2.30;2.10;;;;;;;;;;5004863;28;20522;-61
2021/06/16 03:49:13;;;;;;;6.90;2.45;;;;;;;;;;5005728;28;20034;-60
2021/06/16 03:51:43;;;;;;;6.05;2.55;;;;;;;;;;5002749;28;20036;-61
2021/06/16 03:54:12;;;;;;;4.95;2.47;;;;;;;;;;4997889;28;20040;-61
2021/06/16 03:56:40;;;;;;;3.45;2.70;;;;;;;;;;4997862;28;20151;-61
2021/06/16 03:59:07;;;;;;;4.75;2.60;;;;;;;;;;5001538;28;20064;-59
2021/06/16 04:01:33;;;;;;;3.25;2.38;;;;;;;;;;4998204;28;20044;-61
2021/06/16 04:04:02;;;;;;;3.85;2.35;;;;;;;;;;4994687;28;20495;-61
2021/06/16 04:06:28;;;;;;;2.90;2.38;;;;;;;;;;4999496;28;20378;-61
2021/06/16 04:08:53;;;;;;;3.83;2.40;;;;;;;;;;5002545;28;20033;-61
2021/06/16 04:11:19;;;;;;;2.88;2.30;;;;;;;;;;5000402;28;20132;-61
2021/06/16 04:13:44;;;;;;;3.55;2.30;;;;;;;;;;4997229;28;20110;-61
2021/06/16 04:16:10;;;;;;;10.88;6.80;;;;;;;;;;4999344;28;20128;-60
2021/06/16 04:18:39;;;;;;;4.95;4.45;;;;;;;;;;4998972;28;20076;-61
2021/06/16 04:21:05;;;;;;;3.85;2.97;;;;;;;;;;5000421;28;20412;-61
2021/06/16 04:23:30;;;;;;;3.50;2.72;;;;;;;;;;5001251;28;20056;-61
2021/06/16 04:25:56;;;;;;;4.28;2.65;;;;;;;;;;4999257;28;20026;-61
2021/06/16 04:28:21;;;;;;;7.28;4.43;;;;;;;;;;4998141;28;20037;-61
2021/06/16 04:30:47;;;;;;;6.50;3.95;;;;;;;;;;5001486;28;20075;-61
2021/06/16 04:33:13;;;;;;;4.18;3.10;;;;;;;;;;5000968;28;20040;-61
2021/06/16 04:35:38;;;;;;;2.40;2.20;;;;;;;;;;5000875;28;20579;-61
2021/06/16 04:38:04;;;;;;;2.63;2.30;;;;;;;;;;4997692;28;20026;-61
2021/06/16 04:40:29;;;;;;;4.07;2.78;;;;;;;;;;5000793;28;20029;-61
2021/06/16 04:42:54;;;;;;;6.55;3.53;;;;;;;;;;5004932;28;20040;-61
2021/06/16 04:45:20;;;;;;;5.10;2.97;;;;;;;;;;5003048;28;20038;-61
2021/06/16 04:47:45;;;;;;;6.72;4.70;;;;;;;;;;4999186;28;20733;-60
2021/06/16 04:50:13;;;;;;;6.10;5.50;;;;;;;;;;5000334;28;20048;-60
2021/06/16 04:52:39;;;;;;;5.50;3.83;;;;;;;;;;5005311;28;20067;-61
2021/06/16 04:55:07;;;;;;;4.60;2.80;;;;;;;;;;5001545;28;20033;-61
2021/06/16 04:57:32;;;;;;;4.22;2.35;;;;;;;;;;5000016;28;20323;-61
2021/06/16 04:59:58;;;;;;;4.63;2.60;;;;;;;;;;5003798;28;20068;-61
2021/06/16 05:02:23;;;;;;;2.70;2.50;;;;;;;;;;5005063;28;20064;-61
2021/06/16 05:04:49;;;;;;;4.15;2.78;;;;;;;;;;4999616;28;20529;-61
2021/06/16 05:07:14;;;;;;;4.78;3.08;;;;;;;;;;4997106;28;20140;-61
2021/06/16 05:09:40;;;;;;;4.00;2.78;;;;;;;;;;4996768;28;20112;-60
2021/06/16 05:12:05;;;;;;;4.60;3.03;;;;;;;;;;5006997;28;20026;-60
2021/06/16 05:14:31;;;;;;;4.15;2.83;;;;;;;;;;4997066;28;20096;-60
2021/06/16 05:16:57;;;;;;;3.38;2.60;;;;;;;;;;5001382;28;20112;-60
2021/06/16 05:19:24;;;;;;;3.97;2.92;;;;;;;;;;5011644;28;20391;-60
2021/06/16 05:21:50;;;;;;;5.93;3.05;;;;;;;;;;5008899;28;20030;-60
2021/06/16 05:24:17;;;;;;;3.20;2.90;;;;;;;;;;5004419;28;20034;-59
2021/06/16 05:26:43;;;;;;;4.13;3.40;;;;;;;;;;5006927;28;20026;-59
2021/06/16 05:29:09;;;;;;;3.38;3.08;;;;;;;;;;5005400;28;20048;-59
2021/06/16 05:31:36;;;;;;;2.95;2.75;;;;;;;;;;5002404;28;20484;-59
2021/06/16 05:34:02;;;;;;;3.13;2.83;;;;;;;;;;5006192;28;20040;-59
2021/06/16 05:36:27;;;;;;;2.90;2.70;;;;;;;;;;5002857;28;20034;-59
2021/06/16 05:38:53;;;;;;;2.83;2.63;;;;;;;;;;5004936;28;20026;-60
2021/06/16 05:41:18;;;;;;;3.00;2.70;;;;;;;;;;5007246;28;20030;-59
2021/06/16 05:43:44;;;;;;;3.78;2.90;;;;;;;;;;4999448;28;20676;-60
2021/06/16 05:46:11;;;;;;;3.42;2.95;;;;;;;;;;5000642;28;20460;-59
2021/06/16 05:48:36;;;;;;;3.22;2.92;;;;;;;;;;5006154;28;20392;-59
2021/06/16 05:51:01;;;;;;;3.65;2.83;;;;;;;;;;5005027;28;20049;-60
2021/06/16 05:53:27;;;;;;;2.83;2.63;;;;;;;;;;5002113;28;20061;-61
2021/06/16 05:55:52;;;;;;;6.78;2.90;;;;;;;;;;5001932;28;20022;-59
2021/06/16 05:58:18;;;;;;;3.80;2.55;;;;;;;;;;5005521;28;20108;-59
2021/06/16 06:00:43;;;;;;;3.00;2.78;;;;;;;;;;5006368;28;20041;-59
2021/06/16 06:03:09;;;;;;;3.35;3.05;;;;;;;;;;5002180;28;20026;-60
2021/06/16 06:05:34;;;;;;;4.78;3.13;;;;;;;;;;5001599;28;20038;-59
2021/06/16 06:08:00;;;;;;;4.57;3.20;;;;;;;;;;5001922;28;20033;-59
2021/06/16 06:10:25;;;;;;;3.88;3.00;;;;;;;;;;4997612;28;20109;-59
2021/06/16 06:12:50;;;;;;;3.03;2.72;;;;;;;;;;5004164;28;20046;-60
2021/06/16 06:15:16;;;;;;;3.00;2.70;;;;;;;;;;4999508;28;20084;-59
2021/06/16 06:17:42;;;;;;;4.00;2.55;;;;;;;;;;5002711;28;20027;-60
2021/06/16 06:20:08;;;;;;;3.42;2.83;;;;;;;;;;4999743;28;20450;-61
2021/06/16 06:22:34;;;;;;;3.17;2.88;;;;;;;;;;5002090;28;20033;-60
2021/06/16 06:25:00;;;;;;;3.55;2.63;;;;;;;;;;5003867;28;20042;-60
2021/06/16 06:27:25;;;;;;;3.20;2.50;;;;;;;;;;5003448;28;20042;-60
2021/06/16 06:29:50;;;;;;;4.20;2.90;;;;;;;;;;5002982;28;20022;-60
2021/06/16 06:32:16;;;;;;;6.40;2.92;;;;;;;;;;5004355;28;20080;-60
2021/06/16 06:34:41;;;;;;;3.42;3.13;;;;;;;;;;4999065;28;20450;-60
2021/06/16 06:37:07;;;;;;;4.93;2.83;;;;;;;;;;4998146;28;20038;-61
2021/06/16 06:39:32;;;;;;;6.53;3.20;;;;;;;;;;4997800;28;20133;-60
2021/06/16 06:41:58;;;;;;;3.30;3.00;;;;;;;;;;5005770;28;20025;-60
2021/06/16 06:44:23;;;;;;;6.57;2.95;;;;;;;;;;5004692;28;20042;-61
2021/06/16 06:46:49;;;;;;;2.67;2.45;;;;;;;;;;4999157;28;20030;-60
2021/06/16 06:49:14;;;;;;;4.20;3.03;;;;;;;;;;5005526;28;20144;-60
2021/06/16 06:51:40;;;;;;;3.88;2.75;;;;;;;;;;5015368;28;20404;-61
2021/06/16 06:54:08;;;;;;;3.10;2.80;;;;;;;;;;4994578;28;20033;-61
2021/06/16 06:56:37;;;;;;;3.97;2.80;;;;;;;;;;4999261;28;20058;-61
2021/06/16 06:59:03;;;;;;;2.90;2.63;;;;;;;;;;5004837;28;20062;-60
2021/06/16 07:01:29;;;;;;;3.22;2.80;;;;;;;;;;5001630;28;20097;-61
2021/06/16 07:03:55;;;;;;;4.07;2.90;;;;;;;;;;4999377;28;20037;-61
2021/06/16 07:06:20;;;;;;;3.05;2.78;;;;;;;;;;5004488;28;20033;-60
2021/06/16 07:08:46;;;;;;;4.88;2.85;;;;;;;;;;5001061;28;20105;-61
2021/06/16 07:11:11;;;;;;;4.32;2.65;;;;;;;;;;5003312;28;20132;-61
2021/06/16 07:13:36;;;;;;;4.40;2.80;;;;;;;;;;4997848;28;20049;-61
2021/06/16 07:16:02;;;;;;;3.38;2.67;;;;;;;;;;5004213;28;20475;-61
2021/06/16 07:18:27;;;;;;;3.22;2.60;;;;;;;;;;5000829;28;20115;-60
2021/06/16 07:20:53;;;;;;;3.35;2.35;;;;;;;;;;5001742;28;20060;-61
2021/06/16 07:23:18;;;;;;;4.20;2.55;;;;;;;;;;4998448;28;20018;-61
2021/06/16 07:25:44;;;;;;;3.63;2.80;;;;;;;;;;5000391;28;20473;-61
2021/06/16 07:28:09;;;;;;;4.32;2.58;;;;;;;;;;5001602;28;20033;-60
2021/06/16 07:30:35;;;;;;;5.90;2.80;;;;;;;;;;5005049;28;20113;-61
2021/06/16 07:33:01;;;;;;;4.50;3.05;;;;;;;;;;5003841;28;20057;-60
2021/06/16 07:35:26;;;;;;;4.43;2.92;;;;;;;;;;5001901;28;20033;-60
2021/06/16 07:37:52;;;;;;;3.45;3.00;;;;;;;;;;5000338;28;20063;-59
2021/06/16 07:40:17;;;;;;;6.03;3.00;;;;;;;;;;5001372;28;20041;-61
2021/06/16 07:42:43;;;;;;;4.63;2.83;;;;;;;;;;4999898;28;20079;-61
2021/06/16 07:45:10;;;;;;;4.70;2.75;;;;;;;;;;4999285;28;20096;-61
2021/06/16 07:47:36;;;;;;;3.72;2.95;;;;;;;;;;5002281;28;20037;-60
2021/06/16 07:50:04;;;;;;;3.70;2.78;;;;;;;;;;4994330;28;20532;-61
2021/06/16 07:52:30;;;;;;;4.22;2.90;;;;;;;;;;5003910;28;20030;-61
2021/06/16 07:54:55;;;;;;;2.92;2.63;;;;;;;;;;4997390;28;20420;-61
2021/06/16 07:57:21;;;;;;;2.95;2.65;;;;;;;;;;5000406;28;20302;-61
2021/06/16 07:59:46;;;;;;;4.45;2.70;;;;;;;;;;5000399;28;20149;-61
2021/06/16 08:02:12;;;;;;;3.03;2.63;;;;;;;;;;5006725;28;20119;-61
2021/06/16 08:04:40;;;;;;;3.97;2.70;;;;;;;;;;5000783;28;20026;-61
2021/06/16 08:07:10;;;;;;;2.67;2.47;;;;;;;;;;4999114;28;20038;-61
2021/06/16 08:09:42;;;;;;;3.17;2.88;;;;;;;;;;5002211;28;20121;-60
2021/06/16 08:12:09;;;;;;;4.45;2.63;;;;;;;;;;5004146;28;20113;-60
2021/06/16 08:14:35;;;;;;;3.08;2.78;;;;;;;;;;4996431;28;20034;-60
2021/06/16 08:17:01;;;;;;;3.72;2.75;;;;;;;;;;4999814;28;20386;-60
2021/06/16 08:19:26;;;;;;;4.70;2.70;;;;;;;;;;5002720;28;20055;-62
2021/06/16 08:21:52;;;;;;;3.92;3.00;;;;;;;;;;5001881;28;20087;-62
2021/06/16 08:24:17;;;;;;;4.22;2.80;;;;;;;;;;5002704;28;20053;-62
2021/06/16 08:26:43;;;;;;;7.03;3.00;;;;;;;;;;5003240;28;20396;-62
2021/06/16 08:29:08;;;;;;;3.25;2.50;;;;;;;;;;4993767;28;20477;-62
2021/06/16 08:31:34;;;;;;;3.40;2.55;;;;;;;;;;4997262;28;20451;-62
2021/06/16 08:33:59;;;;;;;4.95;2.83;;;;;;;;;;4997292;28;20049;-61
2021/06/16 08:36:25;;;;;;;9.10;2.70;;;;;;;;;;4996000;28;20076;-61
2021/06/16 08:38:50;;;;;;;4.15;2.70;;;;;;;;;;4995330;28;20069;-61
2021/06/16 08:41:17;;;;;;;4.35;2.83;;;;;;;;;;4994192;28;20053;-61
2021/06/16 08:43:44;;;;;;;3.40;2.72;;;;;;;;;;5004668;28;20177;-61
2021/06/16 08:46:12;;;;;;;2.90;2.33;;;;;;;;;;4993301;28;20099;-61
2021/06/16 08:48:39;;;;;;;2.45;2.03;;;;;;;;;;5006446;28;20116;-61
2021/06/16 08:51:05;;;;;;;3.97;1.98;;;;;;;;;;5006881;28;20117;-62
2021/06/16 08:53:31;;;;;;;2.55;1.80;;;;;;;;;;5008904;28;20036;-59
2021/06/16 08:55:58;;;;;;;1.95;1.75;;;;;;;;;;5003929;28;20046;-61
2021/06/16 08:58:24;;;;;;;2.10;1.90;;;;;;;;;;5002213;28;20056;-61
2021/06/16 09:00:49;;;;;;;2.67;1.70;;;;;;;;;;5003665;28;20029;-61
2021/06/16 09:03:15;;;;;;;1.88;1.75;;;;;;;;;;5005683;28;20056;-60
2021/06/16 09:05:41;;;;;;;2.15;1.63;;;;;;;;;;5008014;28;20030;-61
2021/06/16 09:08:22;;;;;;;3.10;1.70;;;;;;;;;;5006640;28;20423;-61
2021/06/16 09:10:52;;;;;;;1.60;1.50;;;;;;;;;;5003136;28;20022;-61
2021/06/16 09:13:28;;;;;;;4.68;1.90;;;;;;;;;;5007233;28;20037;-61
2021/06/16 09:15:54;;;;;;;2.00;1.75;;;;;;;;;;5006065;28;20041;-60
2021/06/16 09:18:20;;;;;;;2.53;1.73;;;;;;;;;;5008804;28;20029;-60
2021/06/16 09:20:48;;;;;;;2.97;1.90;;;;;;;;;;5003267;28;20091;-61
2021/06/16 09:23:31;;;;;;;3.50;2.22;;;;;;;;;;5003013;28;20037;-61
2021/06/16 09:26:29;;;;;;;3.28;2.10;;;;;;;;;;5005208;28;20052;-61
2021/06/16 09:28:55;;;;;;;3.60;1.80;;;;;;;;;;4999932;28;20046;-61
2021/06/16 09:31:21;;;;;;;2.53;1.65;;;;;;;;;;5002357;28;20086;-62
2021/06/16 09:33:48;;;;;;;2.42;1.80;;;;;;;;;;5007517;28;20072;-60
2021/06/16 09:36:16;;;;;;;1.83;1.73;;;;;;;;;;5004527;28;20096;-61
2021/06/16 09:38:46;;;;;;;2.87;1.80;;;;;;;;;;4999276;28;20038;-60
2021/06/16 09:41:12;;;;;;;1.65;1.50;;;;;;;;;;5002575;28;20126;-60
2021/06/16 09:43:39;;;;;;;1.58;1.48;;;;;;;;;;5001913;28;20418;-61
2021/06/16 09:46:09;;;;;;;3.72;1.45;;;;;;;;;;5004848;28;20044;-62
2021/06/16 09:48:40;;;;;;;2.78;1.80;;;;;;;;;;5008092;28;20026;-62
2021/06/16 09:51:26;;;;;;;1.65;1.55;;;;;;;;;;4998554;28;20021;-62
2021/06/16 09:54:13;;;;;;;2.78;1.70;;;;;;;;;;5005780;28;20111;-61
2021/06/16 09:56:54;;;;;;;2.17;1.58;;;;;;;;;;5004999;28;20507;-60
2021/06/16 09:59:35;;;;;;;1.77;1.67;;;;;;;;;;5006669;28;20446;-61
2021/06/16 10:02:00;;;;;;;2.17;1.80;;;;;;;;;;5002618;28;20038;-61
2021/06/16 10:04:32;;;;;;;2.33;1.65;;;;;;;;;;4999094;28;20096;-61
2021/06/16 10:07:18;;;;;;;1.88;1.60;;;;;;;;;;5003196;28;20030;-60
2021/06/16 10:09:55;;;;;;;2.28;1.60;;;;;;;;;;5000197;28;20025;-61
2021/06/16 10:12:23;;;;;;;1.50;1.40;;;;;;;;;;4995042;28;20045;-61
2021/06/16 10:14:49;;;;;;;3.22;1.65;;;;;;;;;;5004621;28;20069;-61
2021/06/16 10:17:15;;;;;;;3.08;1.70;;;;;;;;;;5003526;28;20548;-62
2021/06/16 10:19:42;;;;;;;2.65;1.50;;;;;;;;;;5001047;28;20041;-62
2021/06/16 10:22:08;;;;;;;2.08;1.73;;;;;;;;;;5003866;28;20022;-62
2021/06/16 10:24:33;;;;;;;2.17;1.60;;;;;;;;;;5006979;28;20451;-62
2021/06/16 10:27:02;;;;;;;3.25;1.80;;;;;;;;;;5000512;28;20022;-61
2021/06/16 10:29:34;;;;;;;1.92;1.50;;;;;;;;;;5004872;28;20026;-62
2021/06/16 10:32:07;;;;;;;2.70;1.60;;;;;;;;;;4996456;28;20030;-62
2021/06/16 10:35:09;;;;;;;3.28;1.60;;;;;;;;;;5002673;28;20483;-61
2021/06/16 10:37:42;;;;;;;1.95;1.60;;;;;;;;;;5003474;28;20026;-61
2021/06/16 10:40:16;;;;;;;3.22;1.52;;;;;;;;;;4998398;28;20065;-63
2021/06/16 10:43:16;;;;;;;3.45;1.88;;;;;;;;;;5001349;28;20028;-63
2021/06/16 10:46:12;;;;;;;2.58;1.50;;;;;;;;;;4994806;28;20539;-63
2021/06/16 10:48:54;;;;;;;2.40;1.42;;;;;;;;;;5002463;28;20050;-61
2021/06/16 10:51:28;;;;;;;1.63;1.52;;;;;;;;;;4999667;28;20030;-61
2021/06/16 10:54:17;;;;;;;2.65;1.70;;;;;;;;;;4995977;28;20030;-61
2021/06/16 10:56:45;;;;;;;3.25;1.58;;;;;;;;;;4997926;28;20085;-61
2021/06/16 10:59:11;;;;;;;1.98;1.60;;;;;;;;;;5000879;28;20037;-61
2021/06/16 11:01:47;;;;;;;3.42;1.73;;;;;;;;;;4995501;28;20033;-61
2021/06/16 11:04:30;;;;;;;2.55;1.40;;;;;;;;;;4998764;28;20096;-60
2021/06/16 11:06:56;;;;;;;2.30;1.70;;;;;;;;;;5001797;28;20029;-61
2021/06/16 11:09:51;;;;;;;2.15;1.63;;;;;;;;;;4999239;28;20026;-61
2021/06/16 11:12:31;;;;;;;2.95;1.90;;;;;;;;;;5000145;28;20029;-61
2021/06/16 11:14:58;;;;;;;1.77;1.50;;;;;;;;;;5006141;28;20029;-61
2021/06/16 11:17:29;;;;;;;1.88;1.70;;;;;;;;;;4995221;28;20452;-62
2021/06/16 11:19:59;;;;;;;2.13;1.80;;;;;;;;;;5003727;28;20037;-61
2021/06/16 11:22:25;;;;;;;3.28;1.40;;;;;;;;;;5001040;28;20022;-62
2021/06/16 11:25:29;;;;;;;2.88;1.80;;;;;;;;;;5003224;28;20500;-61
2021/06/16 11:27:58;;;;;;;3.03;1.48;;;;;;;;;;4997151;28;20113;-62
2021/06/16 11:30:34;;;;;;;1.58;1.48;;;;;;;;;;5000123;28;20125;-62
2021/06/16 11:33:12;;;;;;;1.98;1.70;;;;;;;;;;4999894;28;20045;-62
2021/06/16 11:35:41;;;;;;;2.58;1.40;;;;;;;;;;5001315;28;20619;-62
2021/06/16 11:38:08;;;;;;;2.97;1.70;;;;;;;;;;4998593;28;20125;-62
2021/06/16 11:40:34;;;;;;;2.17;1.60;;;;;;;;;;4996634;28;20080;-61
2021/06/16 11:43:00;;;;;;;3.28;1.42;;;;;;;;;;4995159;28;20029;-61
2021/06/16 11:45:31;;;;;;;2.67;1.50;;;;;;;;;;5002090;28;20497;-61
2021/06/16 11:47:58;;;;;;;2.80;1.48;;;;;;;;;;5003945;28;20025;-61
2021/06/16 11:50:33;;;;;;;1.73;1.58;;;;;;;;;;5000373;28;20367;-62
2021/06/16 11:53:00;;;;;;;1.75;1.42;;;;;;;;;;4998410;28;20049;-63
2021/06/16 11:55:40;;;;;;;1.63;1.30;;;;;;;;;;5002260;28;20030;-62
2021/06/16 11:58:28;;;;;;;1.75;1.42;;;;;;;;;;4997321;28;20451;-62
2021/06/16 12:01:17;;;;;;;2.53;1.55;;;;;;;;;;5001917;28;20040;-62
2021/06/16 12:03:44;;;;;;;1.55;1.45;;;;;;;;;;4998229;28;20488;-62
2021/06/16 12:06:11;;;;;;;2.73;1.60;;;;;;;;;;5002861;28;20033;-62
2021/06/16 12:08:37;;;;;;;2.80;1.52;;;;;;;;;;4997070;28;20446;-62
2021/06/16 12:11:36;;;;;;;2.05;1.40;;;;;;;;;;5000224;28;20037;-62
2021/06/16 12:14:06;;;;;;;1.60;1.38;;;;;;;;;;4988624;28;20522;-61
2021/06/16 12:16:40;;;;;;;1.52;1.40;;;;;;;;;;5002099;28;20029;-62
2021/06/16 12:19:26;;;;;;;3.22;1.67;;;;;;;;;;4998269;28;20029;-62
2021/06/16 12:22:00;;;;;;;2.53;1.50;;;;;;;;;;4998434;28;20528;-62
2021/06/16 12:24:35;;;;;;;2.42;1.45;;;;;;;;;;5000648;28;20022;-62
2021/06/16 12:27:01;;;;;;;1.73;1.52;;;;;;;;;;4994037;28;20112;-62
2021/06/16 12:29:28;;;;;;;2.08;1.40;;;;;;;;;;5003372;28;20102;-61
2021/06/16 12:31:55;;;;;;;1.48;1.30;;;;;;;;;;4997479;28;20528;-63
2021/06/16 12:34:55;;;;;;;1.70;1.30;;;;;;;;;;5011911;28;20022;-62
2021/06/16 12:37:15;;;;;;;1.80;1.50;;;;;;;;;;4995906;28;20038;-62
2021/06/16 12:39:57;;;;;;;2.70;1.60;;;;;;;;;;4999524;28;20489;-63
2021/06/16 12:42:35;;;;;;;1.98;1.50;;;;;;;;;;4994930;28;20245;-62
2021/06/16 12:45:00;;;;;;;4.35;1.30;;;;;;;;;;4998683;28;20026;-62
2021/06/16 12:47:32;;;;;;;1.83;1.42;;;;;;;;;;4999258;28;20038;-62
2021/06/16 12:49:57;;;;;;;1.95;1.20;;;;;;;;;;5004899;28;20030;-62
2021/06/16 12:52:36;;;;;;;1.35;1.25;;;;;;;;;;5004935;28;20080;-62
2021/06/16 12:55:07;;;;;;;1.73;1.40;;;;;;;;;;5000548;28;20488;-62
2021/06/16 12:57:45;;;;;;;2.50;1.40;;;;;;;;;;4995939;28;20077;-62
2021/06/16 13:00:13;;;;;;;;;;;;;;;;;;5001993;28;20026;-62
2021/06/16 13:02:39;;;;;;;2.03;1.13;;;;;;;;;;5000277;28;19943;-63
2021/06/16 13:05:14;;;;;;;2.05;1.30;;;;;;;;;;4999939;28;20518;-62
2021/06/16 13:07:49;;;;;;;2.45;1.50;;;;;;;;;;4999370;28;20038;-62
2021/06/16 13:10:29;;;;;;;2.80;1.30;;;;;;;;;;5000671;28;20100;-62
2021/06/16 13:13:06;;;;;;;1.58;1.42;;;;;;;;;;5001493;28;20056;-62
2021/06/16 13:15:37;;;;;;;5.13;1.37;;;;;;;;;;4997567;28;20052;-62
2021/06/16 13:18:05;;;;;;;3.38;1.40;;;;;;;;;;5002550;28;20276;-63
2021/06/16 13:20:38;;;;;;;3.40;1.80;;;;;;;;;;4997919;28;20035;-63
2021/06/16 13:23:17;;;;;;;1.50;1.40;;;;;;;;;;4995380;28;20112;-62
2021/06/16 13:25:45;;;;;;;1.30;1.15;;;;;;;;;;4994486;28;20503;-62
2021/06/16 13:28:25;;;;;;;1.33;1.20;;;;;;;;;;5000859;28;20089;-62
2021/06/16 13:30:52;;;;;;;1.20;1.10;;;;;;;;;;4999473;28;20109;-63
2021/06/16 13:33:39;;;;;;;1.87;1.20;;;;;;;;;;4998735;28;20031;-62
2021/06/16 13:36:07;;;;;;;2.07;1.20;;;;;;;;;;5002247;28;20029;-63
2021/06/16 13:38:33;;;;;;;2.53;1.38;;;;;;;;;;5006185;28;20033;-62
2021/06/16 13:40:59;;;;;;;3.47;1.20;;;;;;;;;;4998181;28;20026;-63
2021/06/16 13:43:26;;;;;;;2.25;1.20;;;;;;;;;;5002527;28;20033;-62
2021/06/16 13:45:52;;;;;;;1.85;1.40;;;;;;;;;;5004595;28;20033;-62
2021/06/16 13:48:18;;;;;;;1.23;1.13;;;;;;;;;;5004614;28;20029;-62
2021/06/16 13:50:44;;;;;;;1.38;1.20;;;;;;;;;;4998966;28;20045;-63
2021/06/16 13:53:12;;;;;;;2.28;1.13;;;;;;;;;;5002021;28;20408;-62
2021/06/16 13:55:38;;;;;;;1.20;1.10;;;;;;;;;;4998614;28;20074;-63
2021/06/16 13:58:03;;;;;;;1.55;1.10;;;;;;;;;;5001795;28;20034;-62
2021/06/16 14:00:29;;;;;;;1.10;1.08;;;;;;;;;;5009949;28;20496;-62
2021/06/16 14:02:54;;;;;;;1.73;1.50;;;;;;;;;;5003571;28;20026;-63
2021/06/16 14:05:19;;;;;;;2.08;1.30;;;;;;;;;;4996418;28;20025;-62
2021/06/16 14:07:45;;;;;;;2.78;1.30;;;;;;;;;;4998344;28;20038;-62
2021/06/16 14:10:11;;;;;;;2.75;1.40;;;;;;;;;;4999627;28;20568;-62
2021/06/16 14:12:37;;;;;;;2.53;1.42;;;;;;;;;;5006597;28;20037;-62
2021/06/16 14:15:05;;;;;;;2.20;1.30;;;;;;;;;;5003714;28;20044;-62
2021/06/16 14:17:31;;;;;;;1.67;1.30;;;;;;;;;;5002467;28;20038;-63
2021/06/16 14:19:57;;;;;;;1.65;1.40;;;;;;;;;;5000332;28;20076;-62
2021/06/16 14:22:23;;;;;;;2.00;1.42;;;;;;;;;;5001543;28;20033;-62
2021/06/16 14:24:49;;;;;;;2.08;1.40;;;;;;;;;;5002944;28;20049;-62
2021/06/16 14:27:14;;;;;;;2.78;1.60;;;;;;;;;;5005962;28;20030;-63
2021/06/16 14:29:39;;;;;;;1.60;1.50;;;;;;;;;;5002531;28;20017;-63
2021/06/16 14:32:05;;;;;;;3.33;1.80;;;;;;;;;;5000853;28;20030;-62
2021/06/16 14:34:32;;;;;;;2.15;1.40;;;;;;;;;;5000870;28;20026;-62
2021/06/16 14:36:58;;;;;;;1.50;1.30;;;;;;;;;;5002516;28;20053;-63
2021/06/16 14:39:23;;;;;;;3.53;1.85;;;;;;;;;;5003408;28;20492;-62
2021/06/16 14:41:48;;;;;;;3.53;1.42;;;;;;;;;;4999287;28;20113;-62
2021/06/16 14:44:14;;;;;;;1.88;1.70;;;;;;;;;;5000583;28;20548;-62
2021/06/16 14:46:39;;;;;;;1.60;1.50;;;;;;;;;;5000716;28;20025;-62
2021/06/16 14:49:05;;;;;;;2.53;1.85;;;;;;;;;;5001678;28;20026;-62
2021/06/16 14:51:31;;;;;;;1.88;1.67;;;;;;;;;;5004212;28;20026;-62